Time;durP1;ratioP1;P1;durP2;ratioP2;P2;SDS_P1;SDS_P2;PMS_P1;PMS_P2;Temp;Humidity;BMP_temperature;BMP_pressure;BME280_temperature;BME280_humidity;BME280_pressure;Samples;Min_cycle;Max_cycle;Signal;HPM_P1;HPM_P2
2022/06/24 00:01:29;;;;;;;1.30;1.20;;;;;;;;;;5053486;28;20688;-78
2022/06/24 00:03:56;;;;;;;1.23;1.15;;;;;;;;;;5052811;28;20461;-78
2022/06/24 00:06:24;;;;;;;1.40;1.40;;;;;;;;;;5052746;28;20261;-78
2022/06/24 00:08:59;;;;;;;1.38;1.27;;;;;;;;;;5053530;28;20627;-79
2022/06/24 00:11:30;;;;;;;1.05;1.05;;;;;;;;;;5057318;28;20671;-79
2022/06/24 00:14:09;;;;;;;1.65;1.23;;;;;;;;;;5057659;28;20650;-78
2022/06/24 00:17:00;;;;;;;0.88;0.88;;;;;;;;;;5058399;28;20217;-78
2022/06/24 00:19:30;;;;;;;1.00;1.00;;;;;;;;;;5058356;28;20714;-78
2022/06/24 00:22:09;;;;;;;1.30;1.20;;;;;;;;;;5058042;28;20237;-78
2022/06/24 00:24:39;;;;;;;1.17;1.17;;;;;;;;;;5058024;28;20204;-78
2022/06/24 00:27:20;;;;;;;1.45;1.30;;;;;;;;;;5057556;28;20308;-78
2022/06/24 00:29:48;;;;;;;1.13;1.13;;;;;;;;;;5058073;28;20232;-79
2022/06/24 00:32:16;;;;;;;1.15;1.15;;;;;;;;;;5057943;28;20261;-79
2022/06/24 00:34:44;;;;;;;1.25;1.17;;;;;;;;;;5057230;28;20726;-78
2022/06/24 00:37:28;;;;;;;1.10;1.10;;;;;;;;;;5057605;28;20253;-78
2022/06/24 00:39:59;;;;;;;1.30;1.30;;;;;;;;;;5057637;28;20229;-79
2022/06/24 00:42:29;;;;;;;1.10;1.10;;;;;;;;;;5057329;28;20665;-78
2022/06/24 00:45:12;;;;;;;1.40;1.27;;;;;;;;;;5058848;28;20658;-78
2022/06/24 00:47:40;;;;;;;1.48;1.38;;;;;;;;;;5057829;28;20205;-78
2022/06/24 00:50:19;;;;;;;1.27;1.23;;;;;;;;;;5057379;28;20230;-79
2022/06/24 00:52:49;;;;;;;1.25;1.25;;;;;;;;;;5057216;28;20226;-79
2022/06/24 00:55:21;;;;;;;0.93;0.93;;;;;;;;;;5057197;28;20201;-79
2022/06/24 00:57:50;;;;;;;1.10;1.10;;;;;;;;;;5057456;28;20206;-78
2022/06/24 01:00:19;;;;;;;1.10;1.00;;;;;;;;;;5057204;28;20304;-78
2022/06/24 01:02:48;;;;;;;1.08;1.08;;;;;;;;;;5056832;28;20241;-78
2022/06/24 01:05:19;;;;;;;1.10;1.10;;;;;;;;;;5057760;28;20217;-79
2022/06/24 01:07:47;;;;;;;1.08;1.08;;;;;;;;;;5056780;28;20212;-78
2022/06/24 01:10:14;;;;;;;1.25;1.15;;;;;;;;;;5056947;28;20263;-79
2022/06/24 01:12:42;;;;;;;1.23;1.20;;;;;;;;;;5057358;28;20229;-79
2022/06/24 01:15:12;;;;;;;1.10;1.10;;;;;;;;;;5057667;28;20219;-78
2022/06/24 01:17:40;;;;;;;1.20;1.20;;;;;;;;;;5056065;28;20202;-77
2022/06/24 01:20:10;;;;;;;1.10;1.10;;;;;;;;;;5057234;28;20280;-79
2022/06/24 01:22:40;;;;;;;0.95;0.95;;;;;;;;;;5056387;28;20567;-78
2022/06/24 01:25:08;;;;;;;1.10;1.10;;;;;;;;;;5057450;28;20240;-79
2022/06/24 01:27:36;;;;;;;0.88;0.88;;;;;;;;;;5057405;28;20212;-78
2022/06/24 01:30:05;;;;;;;1.05;1.05;;;;;;;;;;5058218;28;20697;-79
2022/06/24 01:32:33;;;;;;;2.25;1.50;;;;;;;;;;5058230;28;20336;-79
2022/06/24 01:35:01;;;;;;;2.78;1.60;;;;;;;;;;5058098;28;20724;-80
2022/06/24 01:37:29;;;;;;;1.63;1.52;;;;;;;;;;5058650;28;20202;-78
2022/06/24 01:39:58;;;;;;;1.90;1.80;;;;;;;;;;5057931;28;20276;-79
2022/06/24 01:42:26;;;;;;;1.98;1.38;;;;;;;;;;5056989;28;20209;-78
2022/06/24 01:44:53;;;;;;;1.50;1.40;;;;;;;;;;5057647;28;20284;-79
2022/06/24 01:47:21;;;;;;;1.63;1.52;;;;;;;;;;5057773;28;20252;-79
2022/06/24 01:49:48;;;;;;;1.58;1.48;;;;;;;;;;5058304;28;20244;-80
2022/06/24 01:52:16;;;;;;;1.65;1.55;;;;;;;;;;5057159;28;20233;-79
2022/06/24 01:54:43;;;;;;;1.10;1.10;;;;;;;;;;5056717;28;20197;-78
2022/06/24 01:57:12;;;;;;;1.70;1.60;;;;;;;;;;5056799;28;20222;-78
2022/06/24 01:59:40;;;;;;;1.48;1.40;;;;;;;;;;5057044;28;20702;-78
2022/06/24 02:02:08;;;;;;;1.52;1.42;;;;;;;;;;5056200;28;20253;-80
2022/06/24 02:04:35;;;;;;;1.45;1.35;;;;;;;;;;5056325;28;20237;-79
2022/06/24 02:07:03;;;;;;;1.70;1.60;;;;;;;;;;5055758;28;20755;-79
2022/06/24 02:13:26;;;;;;;1.60;1.50;;;;;;;;;;5055826;28;20244;-79
2022/06/24 02:15:06;;;;;;;1.90;1.80;;;;;;;;;;5057410;28;20685;-79
2022/06/24 02:17:33;;;;;;;1.88;1.77;;;;;;;;;;5057376;28;20236;-78
2022/06/24 02:20:01;;;;;;;2.45;2.28;;;;;;;;;;5056126;28;20697;-78
2022/06/24 02:22:29;;;;;;;3.20;2.20;;;;;;;;;;5057026;28;20594;-79
2022/06/24 02:24:57;;;;;;;2.30;2.10;;;;;;;;;;5057098;28;20220;-79
2022/06/24 02:27:26;;;;;;;3.35;2.88;;;;;;;;;;5057850;28;20292;-79
2022/06/24 02:29:54;;;;;;;2.28;2.10;;;;;;;;;;5055921;28;20726;-79
2022/06/24 02:32:21;;;;;;;3.55;3.28;;;;;;;;;;5055244;28;20229;-80
2022/06/24 02:34:49;;;;;;;2.08;1.90;;;;;;;;;;5056536;28;20290;-79
2022/06/24 02:37:16;;;;;;;2.70;2.55;;;;;;;;;;5056613;28;20236;-79
2022/06/24 02:39:44;;;;;;;2.25;2.10;;;;;;;;;;5056988;28;20233;-79
2022/06/24 02:42:12;;;;;;;2.33;2.22;;;;;;;;;;5056725;28;20261;-80
2022/06/24 02:44:43;;;;;;;1.90;1.80;;;;;;;;;;5057126;28;20197;-79
2022/06/24 02:47:11;;;;;;;1.92;1.83;;;;;;;;;;5057691;28;20283;-79
2022/06/24 02:49:38;;;;;;;2.03;1.92;;;;;;;;;;5056846;28;20217;-80
2022/06/24 02:52:09;;;;;;;1.90;1.80;;;;;;;;;;5056243;28;20221;-80
2022/06/24 02:54:36;;;;;;;1.90;1.80;;;;;;;;;;5057022;28;20398;-80
2022/06/24 02:57:05;;;;;;;2.15;2.05;;;;;;;;;;5057553;28;20593;-80
2022/06/24 02:59:32;;;;;;;2.00;1.90;;;;;;;;;;5056349;28;20624;-79
2022/06/24 03:02:01;;;;;;;1.88;1.75;;;;;;;;;;5056133;28;20598;-81
2022/06/24 03:04:29;;;;;;;1.98;1.85;;;;;;;;;;5057107;28;20240;-79
2022/06/24 03:06:56;;;;;;;1.92;1.83;;;;;;;;;;5056739;28;20265;-80
2022/06/24 03:09:24;;;;;;;2.50;1.75;;;;;;;;;;5056684;28;20202;-79
2022/06/24 03:11:51;;;;;;;2.33;2.10;;;;;;;;;;5056337;28;20237;-80
2022/06/24 03:14:19;;;;;;;1.73;1.60;;;;;;;;;;5056581;28;20245;-79
2022/06/24 03:16:46;;;;;;;2.63;2.42;;;;;;;;;;5057176;28;20252;-79
2022/06/24 03:19:15;;;;;;;2.30;2.10;;;;;;;;;;5056663;28;20240;-80
2022/06/24 03:21:44;;;;;;;2.05;1.95;;;;;;;;;;5056874;28;20639;-80
2022/06/24 03:24:11;;;;;;;2.22;2.03;;;;;;;;;;5057836;28;20220;-80
2022/06/24 03:26:40;;;;;;;2.20;2.10;;;;;;;;;;5057961;28;20253;-80
2022/06/24 03:29:07;;;;;;;2.80;2.25;;;;;;;;;;5057722;28;20206;-81
2022/06/24 03:31:35;;;;;;;1.90;1.80;;;;;;;;;;5057323;28;20681;-81
2022/06/24 03:34:02;;;;;;;2.13;1.77;;;;;;;;;;5056684;28;20206;-83
2022/06/24 03:36:31;;;;;;;3.53;2.85;;;;;;;;;;5057366;28;20261;-80
2022/06/24 03:38:58;;;;;;;3.75;2.55;;;;;;;;;;5056973;28;20634;-83
2022/06/24 03:41:26;;;;;;;1.77;1.67;;;;;;;;;;5057015;28;20253;-83
2022/06/24 03:43:53;;;;;;;3.47;1.80;;;;;;;;;;5056513;28;20671;-82
2022/06/24 03:46:21;;;;;;;4.22;2.70;;;;;;;;;;5054350;28;20249;-82
2022/06/24 03:48:49;;;;;;;1.85;1.70;;;;;;;;;;5056050;28;20244;-82
2022/06/24 03:51:16;;;;;;;2.00;1.75;;;;;;;;;;5055560;28;20229;-81
2022/06/24 03:53:45;;;;;;;2.60;1.85;;;;;;;;;;5054831;28;20229;-82
2022/06/24 03:56:12;;;;;;;1.88;1.63;;;;;;;;;;5055718;28;20312;-83
2022/06/24 03:58:40;;;;;;;2.00;1.80;;;;;;;;;;5055318;28;20233;-81
2022/06/24 04:01:08;;;;;;;2.10;1.67;;;;;;;;;;5054585;28;20244;-82
2022/06/24 04:03:35;;;;;;;3.58;1.85;;;;;;;;;;5053972;28;20201;-81
2022/06/24 04:06:03;;;;;;;5.90;1.50;;;;;;;;;;5054422;28;20758;-82
2022/06/24 04:08:31;;;;;;;4.22;2.08;;;;;;;;;;5054381;28;20292;-82
2022/06/24 04:10:59;;;;;;;1.52;1.42;;;;;;;;;;5054505;28;20237;-81
2022/06/24 04:13:27;;;;;;;1.70;1.50;;;;;;;;;;5054993;28;20229;-82
2022/06/24 04:15:55;;;;;;;1.88;1.67;;;;;;;;;;5054984;28;20308;-80
2022/06/24 04:18:23;;;;;;;3.88;1.73;;;;;;;;;;5054864;28;20320;-81
2022/06/24 04:20:50;;;;;;;3.33;2.13;;;;;;;;;;5054165;28;20351;-81
2022/06/24 04:23:18;;;;;;;2.08;1.98;;;;;;;;;;5053506;28;20257;-82
2022/06/24 04:25:48;;;;;;;1.45;1.45;;;;;;;;;;5054099;28;20308;-82
2022/06/24 04:28:17;;;;;;;4.32;2.13;;;;;;;;;;5054168;28;20201;-82
2022/06/24 04:30:45;;;;;;;2.08;1.98;;;;;;;;;;5054557;28;20237;-83
2022/06/24 04:33:12;;;;;;;2.30;2.10;;;;;;;;;;5055568;28;20774;-83
2022/06/24 04:35:42;;;;;;;4.15;2.00;;;;;;;;;;5054777;28;20248;-80
2022/06/24 04:38:09;;;;;;;1.92;1.83;;;;;;;;;;5055987;28;20198;-83
2022/06/24 04:40:37;;;;;;;2.03;1.92;;;;;;;;;;5056077;28;20252;-80
2022/06/24 04:43:05;;;;;;;2.15;1.95;;;;;;;;;;5055349;28;20758;-82
2022/06/24 04:45:33;;;;;;;2.00;1.80;;;;;;;;;;5056351;28;20308;-82
2022/06/24 04:48:01;;;;;;;1.67;1.58;;;;;;;;;;5055710;28;20229;-80
2022/06/24 04:50:29;;;;;;;2.78;1.83;;;;;;;;;;5055835;28;20248;-82
2022/06/24 04:52:57;;;;;;;2.13;1.67;;;;;;;;;;5053983;28;20261;-82
2022/06/24 04:55:25;;;;;;;3.58;2.20;;;;;;;;;;5056027;28;20253;-83
2022/06/24 04:57:53;;;;;;;1.80;1.70;;;;;;;;;;5058314;28;20229;-82
2022/06/24 05:00:20;;;;;;;3.25;2.20;;;;;;;;;;5058838;28;20280;-82
2022/06/24 05:02:49;;;;;;;2.50;1.90;;;;;;;;;;5057934;28;20313;-80
2022/06/24 05:05:17;;;;;;;1.85;1.73;;;;;;;;;;5059335;28;20229;-82
2022/06/24 05:07:44;;;;;;;3.88;2.97;;;;;;;;;;5059106;28;20285;-82
2022/06/24 05:10:12;;;;;;;2.92;2.17;;;;;;;;;;5058720;28;20226;-82
2022/06/24 05:12:39;;;;;;;3.78;2.25;;;;;;;;;;5057248;28;20647;-81
2022/06/24 05:15:09;;;;;;;2.40;2.20;;;;;;;;;;5058252;28;20244;-81
2022/06/24 05:17:36;;;;;;;4.45;1.90;;;;;;;;;;5057568;28;20206;-81
2022/06/24 05:20:07;;;;;;;4.18;2.47;;;;;;;;;;5057690;28;20205;-80
2022/06/24 05:22:35;;;;;;;1.90;1.80;;;;;;;;;;5056638;28;20245;-82
2022/06/24 05:25:03;;;;;;;2.58;1.85;;;;;;;;;;5057642;28;20233;-81
2022/06/24 05:27:31;;;;;;;3.92;2.05;;;;;;;;;;5057201;28;20232;-83
2022/06/24 05:29:58;;;;;;;2.05;1.95;;;;;;;;;;5056998;28;20645;-82
2022/06/24 05:32:26;;;;;;;2.88;2.67;;;;;;;;;;5056772;28;20290;-83
2022/06/24 05:34:53;;;;;;;2.60;2.35;;;;;;;;;;5056770;28;20280;-81
2022/06/24 05:37:22;;;;;;;4.40;2.25;;;;;;;;;;5056837;28;20294;-82
2022/06/24 05:39:50;;;;;;;2.03;1.40;;;;;;;;;;5057044;28;20269;-81
2022/06/24 05:42:17;;;;;;;1.50;1.40;;;;;;;;;;5056429;28;20721;-80
2022/06/24 05:44:45;;;;;;;3.10;1.63;;;;;;;;;;5055625;28;20289;-82
2022/06/24 05:47:12;;;;;;;1.85;1.25;;;;;;;;;;5058605;28;20249;-81
2022/06/24 05:49:40;;;;;;;1.80;1.67;;;;;;;;;;5056950;28;20729;-81
2022/06/24 05:52:09;;;;;;;2.10;1.67;;;;;;;;;;5057709;28;20284;-81
2022/06/24 05:57:22;;;;;;;1.80;1.35;;;;;;;;;;5057148;28;20243;-81
2022/06/24 05:59:50;;;;;;;2.00;1.40;;;;;;;;;;5056982;28;20658;-81
2022/06/24 06:02:18;;;;;;;1.83;1.52;;;;;;;;;;5055664;28;20225;-81
2022/06/24 06:04:48;;;;;;;2.05;1.80;;;;;;;;;;5056207;28;20205;-81
2022/06/24 06:07:16;;;;;;;5.07;2.33;;;;;;;;;;5047005;28;20226;-81
2022/06/24 06:09:45;;;;;;;1.90;1.80;;;;;;;;;;5052281;28;20229;-81
2022/06/24 06:12:12;;;;;;;2.22;1.73;;;;;;;;;;5060260;28;20233;-82
2022/06/24 06:14:40;;;;;;;4.28;2.40;;;;;;;;;;5059435;28;20671;-81
2022/06/24 06:17:08;;;;;;;1.60;1.50;;;;;;;;;;5068118;28;20272;-81
2022/06/24 06:19:37;;;;;;;2.67;1.20;;;;;;;;;;5058688;28;20280;-80
2022/06/24 06:22:06;;;;;;;2.05;1.50;;;;;;;;;;5044908;28;20648;-82
2022/06/24 06:24:33;;;;;;;1.30;1.20;;;;;;;;;;5050646;28;20221;-81
2022/06/24 06:27:02;;;;;;;2.60;1.30;;;;;;;;;;5056809;28;20263;-81
2022/06/24 06:29:30;;;;;;;1.10;1.00;;;;;;;;;;5036698;28;20241;-82
2022/06/24 06:31:57;;;;;;;1.05;1.05;;;;;;;;;;5062156;28;20295;-81
2022/06/24 06:34:25;;;;;;;1.10;1.10;;;;;;;;;;5056028;28;20193;-81
2022/06/24 06:36:52;;;;;;;1.40;1.30;;;;;;;;;;5048796;28;20263;-82
2022/06/24 06:39:20;;;;;;;1.50;1.40;;;;;;;;;;5056063;28;20225;-81
2022/06/24 06:41:48;;;;;;;1.92;1.52;;;;;;;;;;5076138;28;20236;-81
2022/06/24 06:44:17;;;;;;;1.83;1.17;;;;;;;;;;5063435;28;20268;-82
2022/06/24 06:46:45;;;;;;;1.67;1.58;;;;;;;;;;5056626;28;20257;-82
2022/06/24 06:49:12;;;;;;;3.22;1.60;;;;;;;;;;5049371;28;20245;-82
2022/06/24 06:51:40;;;;;;;3.78;1.45;;;;;;;;;;5049464;28;20241;-81
2022/06/24 06:54:07;;;;;;;2.00;1.42;;;;;;;;;;5049343;28;20208;-81
2022/06/24 06:56:35;;;;;;;2.10;1.35;;;;;;;;;;5049857;28;20308;-81
2022/06/24 06:59:02;;;;;;;2.22;1.80;;;;;;;;;;5057209;28;20244;-81
2022/06/24 07:01:31;;;;;;;1.25;1.15;;;;;;;;;;5076252;28;20240;-80
2022/06/24 07:03:59;;;;;;;1.00;1.00;;;;;;;;;;5048743;28;20674;-80
2022/06/24 07:06:27;;;;;;;1.30;1.20;;;;;;;;;;5049754;28;20298;-82
2022/06/24 07:08:55;;;;;;;2.38;2.17;;;;;;;;;;5062908;28;20233;-83
2022/06/24 07:11:22;;;;;;;3.30;1.58;;;;;;;;;;5067949;28;20281;-81
2022/06/24 07:13:50;;;;;;;0.90;0.90;;;;;;;;;;5055947;28;20216;-82
2022/06/24 07:16:17;;;;;;;1.63;1.52;;;;;;;;;;5049196;28;20245;-82
2022/06/24 07:18:46;;;;;;;1.50;1.40;;;;;;;;;;5049265;28;20269;-81
2022/06/24 07:21:14;;;;;;;3.35;1.40;;;;;;;;;;5050215;28;20245;-83
2022/06/24 07:23:42;;;;;;;2.05;1.58;;;;;;;;;;5048067;28;20331;-81
2022/06/24 07:26:10;;;;;;;1.88;1.35;;;;;;;;;;5049695;28;20229;-82
2022/06/24 07:28:38;;;;;;;1.42;0.98;;;;;;;;;;5043301;28;20292;-83
2022/06/24 07:31:15;;;;;;;1.67;1.30;;;;;;;;;;5063337;28;20293;-80
2022/06/24 07:33:42;;;;;;;1.10;0.95;;;;;;;;;;5056185;28;20197;-82
2022/06/24 07:36:11;;;;;;;0.90;0.90;;;;;;;;;;5055021;28;20694;-81
2022/06/24 07:38:39;;;;;;;1.95;1.23;;;;;;;;;;5056363;28;20288;-83
2022/06/24 07:41:08;;;;;;;1.92;1.42;;;;;;;;;;5055176;28;20237;-81
2022/06/24 07:43:37;;;;;;;1.30;1.20;;;;;;;;;;5055809;28;20237;-82
2022/06/24 07:46:08;;;;;;;1.65;0.90;;;;;;;;;;5055800;28;20358;-83
2022/06/24 07:48:36;;;;;;;3.03;1.45;;;;;;;;;;5055262;28;20210;-81
2022/06/24 07:51:12;;;;;;;1.85;1.20;;;;;;;;;;5055210;28;20237;-81
2022/06/24 07:53:40;;;;;;;1.42;1.10;;;;;;;;;;5061759;28;20243;-83
2022/06/24 07:58:52;;;;;;;2.33;1.40;;;;;;;;;;5055782;28;20208;-82
2022/06/24 08:01:20;;;;;;;1.10;1.00;;;;;;;;;;5055935;28;20297;-83
2022/06/24 08:03:47;;;;;;;1.20;1.10;;;;;;;;;;5055388;28;20313;-82
2022/06/24 08:06:16;;;;;;;2.03;1.20;;;;;;;;;;5074865;28;20264;-83
2022/06/24 08:08:44;;;;;;;1.38;1.00;;;;;;;;;;5074655;28;20211;-82
2022/06/24 08:11:11;;;;;;;1.45;0.95;;;;;;;;;;5058537;28;20236;-81
2022/06/24 08:13:40;;;;;;;1.30;1.20;;;;;;;;;;5056078;28;20662;-83
2022/06/24 08:16:08;;;;;;;1.25;1.15;;;;;;;;;;5056604;28;20236;-80
2022/06/24 08:18:36;;;;;;;2.03;1.35;;;;;;;;;;5056511;28;20224;-81
2022/06/24 08:21:03;;;;;;;1.77;0.93;;;;;;;;;;5055584;28;20241;-83
2022/06/24 08:23:32;;;;;;;1.00;1.00;;;;;;;;;;5054915;28;20244;-82
2022/06/24 08:25:59;;;;;;;1.38;1.02;;;;;;;;;;5074935;28;20231;-81
2022/06/24 08:28:27;;;;;;;2.92;1.80;;;;;;;;;;5074791;28;20288;-82
2022/06/24 08:30:54;;;;;;;0.80;0.80;;;;;;;;;;5077783;28;20228;-83
2022/06/24 08:33:22;;;;;;;1.38;0.90;;;;;;;;;;5065389;28;20265;-81
2022/06/24 08:35:50;;;;;;;1.40;1.00;;;;;;;;;;5078521;28;20220;-81
2022/06/24 08:38:19;;;;;;;1.27;1.17;;;;;;;;;;5078793;28;20577;-81
2022/06/24 08:40:49;;;;;;;1.85;1.02;;;;;;;;;;5065604;28;20233;-81
2022/06/24 08:43:17;;;;;;;2.35;0.80;;;;;;;;;;5052279;28;20284;-83
2022/06/24 08:45:45;;;;;;;0.95;0.95;;;;;;;;;;5053156;28;20717;-82
2022/06/24 08:48:13;;;;;;;1.20;1.02;;;;;;;;;;5058850;28;20240;-80
2022/06/24 08:50:41;;;;;;;0.93;0.93;;;;;;;;;;5060149;28;20205;-81
2022/06/24 08:53:10;;;;;;;1.15;0.95;;;;;;;;;;5072530;28;20240;-80
2022/06/24 08:55:40;;;;;;;0.90;0.90;;;;;;;;;;5066409;28;20728;-81
2022/06/24 08:58:11;;;;;;;1.42;1.33;;;;;;;;;;5066118;28;20236;-82
2022/06/24 09:00:40;;;;;;;2.40;0.90;;;;;;;;;;5064252;28;20238;-82
2022/06/24 09:03:09;;;;;;;1.65;1.50;;;;;;;;;;5059110;28;20212;-81
2022/06/24 09:05:36;;;;;;;1.10;1.02;;;;;;;;;;5059318;28;20226;-82
2022/06/24 09:08:06;;;;;;;1.45;1.20;;;;;;;;;;5077530;28;20235;-81
2022/06/24 09:10:34;;;;;;;1.17;1.08;;;;;;;;;;5064427;28;20245;-79
2022/06/24 09:13:02;;;;;;;2.15;1.13;;;;;;;;;;5072327;28;20292;-80
2022/06/24 09:15:32;;;;;;;2.08;1.30;;;;;;;;;;5067356;28;20721;-82
2022/06/24 09:18:00;;;;;;;0.98;0.98;;;;;;;;;;5069974;28;20206;-82
2022/06/24 09:20:30;;;;;;;1.42;1.30;;;;;;;;;;5061757;28;20236;-80
2022/06/24 09:23:06;;;;;;;1.48;1.10;;;;;;;;;;5077847;28;20249;-79
2022/06/24 09:25:44;;;;;;;1.10;1.00;;;;;;;;;;5080555;28;20228;-80
2022/06/24 09:28:13;;;;;;;1.30;1.20;;;;;;;;;;5080409;28;20236;-80
2022/06/24 09:30:42;;;;;;;1.20;1.10;;;;;;;;;;5075065;28;20290;-81
2022/06/24 09:33:17;;;;;;;0.93;0.93;;;;;;;;;;5058514;28;20232;-81
2022/06/24 09:35:45;;;;;;;1.30;1.10;;;;;;;;;;5054205;28;20267;-80
2022/06/24 09:38:14;;;;;;;1.33;1.23;;;;;;;;;;5053133;28;20202;-81
2022/06/24 09:40:42;;;;;;;1.25;1.13;;;;;;;;;;5053914;28;20644;-80
2022/06/24 09:43:10;;;;;;;2.50;1.35;;;;;;;;;;5052490;28;20663;-80
2022/06/24 09:45:47;;;;;;;0.95;0.95;;;;;;;;;;5053540;28;20683;-80
2022/06/24 09:48:28;;;;;;;1.30;1.20;;;;;;;;;;5077673;28;20232;-80
2022/06/24 09:50:57;;;;;;;1.02;1.02;;;;;;;;;;5078225;28;20591;-80
2022/06/24 09:53:26;;;;;;;2.40;1.30;;;;;;;;;;5056480;28;20269;-80
2022/06/24 09:55:54;;;;;;;1.98;1.30;;;;;;;;;;5068780;28;20290;-80
2022/06/24 09:58:23;;;;;;;2.38;1.58;;;;;;;;;;5077526;28;20201;-81
2022/06/24 10:00:51;;;;;;;1.35;1.25;;;;;;;;;;5076980;28;20288;-80
2022/06/24 10:03:19;;;;;;;1.67;1.40;;;;;;;;;;5077952;28;20220;-79
2022/06/24 10:05:49;;;;;;;1.45;1.35;;;;;;;;;;5078380;28;20315;-79
2022/06/24 10:08:19;;;;;;;2.53;1.25;;;;;;;;;;5077973;28;20736;-79
2022/06/24 10:10:49;;;;;;;2.00;1.83;;;;;;;;;;5065913;28;20241;-81
2022/06/24 10:13:25;;;;;;;1.15;1.13;;;;;;;;;;5057261;28;20230;-78
2022/06/24 10:15:57;;;;;;;1.58;1.25;;;;;;;;;;5057166;28;20305;-79
2022/06/24 10:18:31;;;;;;;1.00;0.95;;;;;;;;;;5057886;28;20694;-79
2022/06/24 10:21:02;;;;;;;1.45;1.23;;;;;;;;;;5051876;28;20205;-79
2022/06/24 10:23:38;;;;;;;1.40;1.05;;;;;;;;;;5057303;28;20198;-78
2022/06/24 10:26:14;;;;;;;2.67;1.65;;;;;;;;;;5057572;28;20304;-78
2022/06/24 10:29:20;;;;;;;2.28;2.08;;;;;;;;;;5057179;28;20292;-79
2022/06/24 10:32:07;;;;;;;1.48;1.10;;;;;;;;;;5056634;28;20570;-81
2022/06/24 10:34:43;;;;;;;1.08;0.95;;;;;;;;;;5054673;28;20248;-80
2022/06/24 10:37:30;;;;;;;1.27;1.17;;;;;;;;;;5056424;28;20221;-80
2022/06/24 10:40:01;;;;;;;1.60;1.40;;;;;;;;;;5056045;28;20209;-80
2022/06/24 10:42:33;;;;;;;2.10;1.90;;;;;;;;;;5056676;28;20202;-80
2022/06/24 10:45:02;;;;;;;1.95;1.83;;;;;;;;;;5057277;28;20277;-80
2022/06/24 10:47:44;;;;;;;1.27;1.17;;;;;;;;;;5060793;28;20241;-82
2022/06/24 10:50:20;;;;;;;1.65;1.48;;;;;;;;;;5054518;28;20197;-80
2022/06/24 10:53:06;;;;;;;1.40;0.90;;;;;;;;;;5053747;28;20276;-80
2022/06/24 10:55:41;;;;;;;1.30;1.30;;;;;;;;;;5054827;28;20705;-80
2022/06/24 10:58:16;;;;;;;1.55;1.42;;;;;;;;;;5054561;28;20189;-80
2022/06/24 11:00:53;;;;;;;4.35;1.48;;;;;;;;;;5054903;28;20596;-80
2022/06/24 11:03:34;;;;;;;1.65;1.20;;;;;;;;;;5054636;28;20192;-80
2022/06/24 11:06:02;;;;;;;1.52;1.45;;;;;;;;;;5054585;28;20229;-81
2022/06/24 11:08:30;;;;;;;1.35;1.20;;;;;;;;;;5054847;28;20221;-81
2022/06/24 11:10:58;;;;;;;2.58;1.30;;;;;;;;;;5054401;28;20746;-79
2022/06/24 11:13:25;;;;;;;1.67;1.58;;;;;;;;;;5054248;28;20232;-82
2022/06/24 11:15:56;;;;;;;1.70;1.48;;;;;;;;;;5054243;28;20222;-83
2022/06/24 11:18:26;;;;;;;1.10;1.10;;;;;;;;;;5054377;28;20198;-82
2022/06/24 11:20:59;;;;;;;1.75;1.20;;;;;;;;;;5053719;28;20196;-82
2022/06/24 11:23:28;;;;;;;1.35;1.20;;;;;;;;;;5054072;28;20186;-83
2022/06/24 11:26:01;;;;;;;2.42;1.33;;;;;;;;;;5054218;28;20583;-81
2022/06/24 11:28:32;;;;;;;1.38;1.35;;;;;;;;;;5054147;28;20217;-82
2022/06/24 11:31:17;;;;;;;1.33;1.30;;;;;;;;;;5054207;28;20551;-82
2022/06/24 11:33:45;;;;;;;1.30;1.20;;;;;;;;;;5053697;28;20193;-81
2022/06/24 11:36:15;;;;;;;1.08;1.08;;;;;;;;;;5053924;28;20304;-84
2022/06/24 11:38:54;;;;;;;1.52;1.40;;;;;;;;;;5054472;28;20208;-83
2022/06/24 11:41:29;;;;;;;2.63;1.40;;;;;;;;;;5053893;28;20288;-83
2022/06/24 11:43:57;;;;;;;1.30;1.30;;;;;;;;;;5054094;28;20189;-81
2022/06/24 11:46:25;;;;;;;1.55;1.30;;;;;;;;;;5053739;28;20232;-82
2022/06/24 11:49:05;;;;;;;1.20;1.13;;;;;;;;;;5053925;28;20633;-81
2022/06/24 11:51:35;;;;;;;1.10;1.10;;;;;;;;;;5054280;28;20250;-82
2022/06/24 11:54:04;;;;;;;1.33;1.33;;;;;;;;;;5053870;28;20725;-83
2022/06/24 11:56:34;;;;;;;2.35;1.15;;;;;;;;;;5053961;28;20316;-83
2022/06/24 11:59:04;;;;;;;1.20;1.10;;;;;;;;;;5054100;28;20237;-82
2022/06/24 12:01:33;;;;;;;1.20;1.10;;;;;;;;;;5053636;28;20216;-82
2022/06/24 12:04:02;;;;;;;2.00;1.02;;;;;;;;;;5053961;28;20327;-83
2022/06/24 12:06:31;;;;;;;1.20;1.20;;;;;;;;;;5053664;28;20569;-83
2022/06/24 12:09:00;;;;;;;1.35;1.25;;;;;;;;;;5053707;28;20208;-83
2022/06/24 12:11:28;;;;;;;1.70;1.60;;;;;;;;;;5053550;28;20208;-83
2022/06/24 12:13:59;;;;;;;2.00;1.83;;;;;;;;;;5054002;28;20240;-82
2022/06/24 12:16:27;;;;;;;1.30;1.25;;;;;;;;;;5053364;28;20268;-81
2022/06/24 12:18:55;;;;;;;2.20;0.90;;;;;;;;;;5053601;28;20198;-80
2022/06/24 12:21:27;;;;;;;1.30;1.20;;;;;;;;;;5053777;28;20192;-81
2022/06/24 12:23:55;;;;;;;1.17;1.13;;;;;;;;;;5053496;28;20537;-80
2022/06/24 12:26:26;;;;;;;1.13;1.13;;;;;;;;;;5053037;28;20260;-81
2022/06/24 12:29:05;;;;;;;1.50;1.40;;;;;;;;;;5053977;28;20268;-82
2022/06/24 12:31:34;;;;;;;1.17;1.13;;;;;;;;;;5053780;28;20224;-82
2022/06/24 12:34:02;;;;;;;1.50;1.40;;;;;;;;;;5054067;28;20197;-82
2022/06/24 12:36:41;;;;;;;1.05;1.05;;;;;;;;;;5053054;28;20221;-81
2022/06/24 12:39:11;;;;;;;1.00;1.00;;;;;;;;;;5052734;28;20205;-82
2022/06/24 12:41:49;;;;;;;1.05;1.05;;;;;;;;;;5053168;28;20634;-81
2022/06/24 12:44:17;;;;;;;1.00;1.00;;;;;;;;;;5053742;28;20217;-81
2022/06/24 12:52:38;;;;;;;1.48;1.38;;;;;;;;;;5053448;28;20272;-83
2022/06/24 12:55:08;;;;;;;1.10;1.10;;;;;;;;;;5053190;28;20206;-81
2022/06/24 12:57:37;;;;;;;1.10;1.10;;;;;;;;;;5053531;28;20274;-81
2022/06/24 13:00:08;;;;;;;1.45;1.45;;;;;;;;;;5053134;28;20643;-82
2022/06/24 13:02:36;;;;;;;1.20;1.10;;;;;;;;;;5053335;28;20550;-82
2022/06/24 13:05:04;;;;;;;1.33;1.23;;;;;;;;;;5052770;28;20296;-82
2022/06/24 13:07:31;;;;;;;1.30;1.20;;;;;;;;;;5053394;28;20304;-81
2022/06/24 13:09:59;;;;;;;1.50;1.25;;;;;;;;;;5053718;28;20237;-82
2022/06/24 13:12:27;;;;;;;1.40;1.30;;;;;;;;;;5052886;28;20265;-81
2022/06/24 13:14:55;;;;;;;0.95;0.95;;;;;;;;;;5052544;28;20252;-82
2022/06/24 13:17:23;;;;;;;1.08;1.08;;;;;;;;;;5055520;28;20220;-81
2022/06/24 13:19:50;;;;;;;0.93;0.93;;;;;;;;;;5056364;28;20240;-80
2022/06/24 13:22:18;;;;;;;1.58;1.25;;;;;;;;;;5056330;28;20787;-80
2022/06/24 13:24:46;;;;;;;0.88;0.88;;;;;;;;;;5056226;28;20229;-79
2022/06/24 13:27:13;;;;;;;0.70;0.70;;;;;;;;;;5055812;28;20316;-79
2022/06/24 13:29:41;;;;;;;0.85;0.80;;;;;;;;;;5055806;28;20206;-81
2022/06/24 13:32:10;;;;;;;0.98;0.93;;;;;;;;;;5056195;28;20233;-79
2022/06/24 13:34:38;;;;;;;0.80;0.80;;;;;;;;;;5055614;28;20202;-79
2022/06/24 13:37:06;;;;;;;0.80;0.80;;;;;;;;;;5055691;28;20300;-78
2022/06/24 13:39:33;;;;;;;0.70;0.70;;;;;;;;;;5056032;28;20261;-80
2022/06/24 13:42:01;;;;;;;0.90;0.90;;;;;;;;;;5054866;28;20289;-79
2022/06/24 13:44:29;;;;;;;0.80;0.80;;;;;;;;;;5056498;28;20240;-79
2022/06/24 13:46:56;;;;;;;0.80;0.80;;;;;;;;;;5055458;28;20308;-79
2022/06/24 13:49:25;;;;;;;0.60;0.60;;;;;;;;;;5055655;28;20201;-79
2022/06/24 13:51:53;;;;;;;1.23;0.80;;;;;;;;;;5056153;28;20296;-79
2022/06/24 13:54:21;;;;;;;1.10;1.05;;;;;;;;;;5056002;28;20198;-80
2022/06/24 13:56:48;;;;;;;1.30;0.75;;;;;;;;;;5055842;28;20287;-79
2022/06/24 13:59:16;;;;;;;1.00;1.00;;;;;;;;;;5055700;28;20288;-80
2022/06/24 14:01:44;;;;;;;0.77;0.75;;;;;;;;;;5055478;28;20201;-82
2022/06/24 14:04:12;;;;;;;1.10;1.10;;;;;;;;;;5055679;28;20293;-79
2022/06/24 14:06:41;;;;;;;0.73;0.73;;;;;;;;;;5055467;28;20264;-80
2022/06/24 14:09:08;;;;;;;0.80;0.80;;;;;;;;;;5055438;28;20316;-80
2022/06/24 14:11:36;;;;;;;2.30;1.02;;;;;;;;;;5055366;28;20211;-80
2022/06/24 14:14:03;;;;;;;0.80;0.80;;;;;;;;;;5055285;28;20300;-79
2022/06/24 14:16:31;;;;;;;0.88;0.88;;;;;;;;;;5054962;28;20257;-80
2022/06/24 14:18:59;;;;;;;0.80;0.80;;;;;;;;;;5054446;28;20206;-79
2022/06/24 14:21:27;;;;;;;0.70;0.70;;;;;;;;;;5055162;28;20251;-79
2022/06/24 14:26:41;;;;;;;0.80;0.70;;;;;;;;;;5054972;28;20617;-80
2022/06/24 14:29:08;;;;;;;0.60;0.60;;;;;;;;;;5053679;28;20308;-79
2022/06/24 14:31:36;;;;;;;0.80;0.80;;;;;;;;;;5054554;28;20288;-79
2022/06/24 14:34:03;;;;;;;0.70;0.70;;;;;;;;;;5054678;28;20462;-80
2022/06/24 14:36:31;;;;;;;0.47;0.47;;;;;;;;;;5054433;28;20264;-80
2022/06/24 14:41:45;;;;;;;0.95;0.95;;;;;;;;;;5054622;28;20215;-79
2022/06/24 14:44:12;;;;;;;0.95;0.95;;;;;;;;;;5054630;28;20229;-79
2022/06/24 14:46:40;;;;;;;0.90;0.90;;;;;;;;;;5054236;28;20217;-80
2022/06/24 14:49:08;;;;;;;1.27;1.20;;;;;;;;;;5054243;28;20284;-79
2022/06/24 14:51:35;;;;;;;0.80;0.80;;;;;;;;;;5054237;28;20204;-80
2022/06/24 14:54:04;;;;;;;1.25;1.17;;;;;;;;;;5054176;28;20233;-80
2022/06/24 14:56:32;;;;;;;1.25;1.15;;;;;;;;;;5054083;28;20574;-80
2022/06/24 14:58:59;;;;;;;0.90;0.90;;;;;;;;;;5054121;28;20228;-80
2022/06/24 15:01:27;;;;;;;0.65;0.65;;;;;;;;;;5054126;28;20288;-80
2022/06/24 15:03:55;;;;;;;0.88;0.88;;;;;;;;;;5054287;28;20255;-80
2022/06/24 15:06:24;;;;;;;0.82;0.82;;;;;;;;;;5054298;28;20593;-81
2022/06/24 15:08:51;;;;;;;1.05;1.05;;;;;;;;;;5054231;28;20232;-81
2022/06/24 15:11:20;;;;;;;0.90;0.90;;;;;;;;;;5053771;28;20680;-79
2022/06/24 15:13:48;;;;;;;1.17;1.17;;;;;;;;;;5053775;28;20283;-81
2022/06/24 15:16:16;;;;;;;0.90;0.90;;;;;;;;;;5054195;28;20559;-80